CheckWX is a tool to help pilots better visualize weather data.  It is not intended as a substitute for an official pre-flight weather briefing.

01:18:24 UTC

GABS METAR
Senou Airport
Senou, Mali
Current

48 mins ago

GABS 240030Z 00000KT CAVOK 29/14 Q1013 NOSIG
Observed
Mar-24 @ 00:30 UTC
Visibility
10,000+ meters
Flight Rules
VFR
Cloud Levels
  • Clear skies
Temperature
29°C / 84°F
Dewpoint
14°C / 57°F
Humidity
40%
Altimeter
29.91" Hg
Pressure
1012.92 hPa
Previous

1 hour ago

GABS 240000Z 00000KT CAVOK 30/14 Q1013 NOSIG
Observed
Mar-24 @ 00:00 UTC
Visibility
10,000+ meters
Flight Rules
VFR
Cloud Levels
  • Clear skies
Temperature
30°C / 86°F
Dewpoint
14°C / 57°F
Humidity
38%
Altimeter
29.91" Hg
Pressure
1012.92 hPa
Previous

2 hours ago

GABS 232330Z 36003KT 300V040 CAVOK 32/11 Q1013 NOSIG
Observed
Mar-23 @ 23:30 UTC
Wind
  • 360° at 3 KTS
Visibility
10,000+ meters
Flight Rules
VFR
Cloud Levels
  • Clear skies
Temperature
32°C / 90°F
Dewpoint
11°C / 52°F
Humidity
27%
Altimeter
29.91" Hg
Pressure
1012.92 hPa